Time;durP1;ratioP1;P1;durP2;ratioP2;P2;SDS_P1;SDS_P2;PMS_P1;PMS_P2;Temp;Humidity;BMP_temperature;BMP_pressure;BME280_temperature;BME280_humidity;BME280_pressure;Samples;Min_cycle;Max_cycle;Signal;HPM_P1;HPM_P2
2023/01/26 07:01:38;;;;;;;31.10;18.70;;;;;;;-145.79;81.06;79985.28;5322714;27;20388;-72
2023/01/26 07:04:10;;;;;;;33.38;19.73;;;;;;;-145.79;81.99;80002.25;5316496;28;20040;-71
2023/01/26 07:06:42;;;;;;;32.65;19.20;;;;;;;-145.79;82.13;80000.13;5306174;28;20359;-71
2023/01/26 07:09:13;;;;;;;33.97;20.15;;;;;;;-145.79;82.88;79983.16;5301358;28;20028;-71
2023/01/26 07:11:45;;;;;;;31.77;18.58;;;;;;;-145.79;82.91;79974.66;5300163;28;20027;-72
2023/01/26 07:14:16;;;;;;;31.65;18.38;;;;;;;-145.79;82.33;79976.78;5301005;28;20510;-72
2023/01/26 07:16:47;;;;;;;29.20;17.83;;;;;;;-145.79;82.79;79976.78;5310279;28;20074;-72
2023/01/26 07:19:19;;;;;;;29.80;19.08;;;;;;;-145.79;82.77;79972.53;5321580;28;20113;-72
2023/01/26 07:21:50;;;;;;;29.77;18.05;;;;;;;-145.79;82.39;79981.03;5309945;28;20475;-71
2023/01/26 07:24:21;;;;;;;28.30;17.90;;;;;;;-145.79;82.40;79972.53;5300867;28;20025;-72
2023/01/26 07:26:53;;;;;;;31.92;18.38;;;;;;;-145.79;82.31;79978.91;5300252;28;20109;-72
2023/01/26 07:29:24;;;;;;;31.48;18.55;;;;;;;-145.79;82.66;79961.94;5306905;28;20016;-73
2023/01/26 07:31:56;;;;;;;28.40;16.60;;;;;;;-145.79;82.75;79968.31;5321296;28;20111;-72
2023/01/26 07:34:32;;;;;;;32.40;19.52;;;;;;;-145.79;82.27;79976.78;5321119;28;20028;-72
2023/01/26 07:37:04;;;;;;;33.53;19.60;;;;;;;-145.79;81.87;79985.28;5334298;27;20026;-72
2023/01/26 07:39:35;;;;;;;30.58;19.13;;;;;;;-145.79;82.24;79993.75;5324787;28;20025;-72
2023/01/26 07:42:08;;;;;;;28.88;17.48;;;;;;;-145.79;82.25;79989.50;5307808;28;20105;-72
2023/01/26 07:44:40;;;;;;;30.10;18.95;;;;;;;-145.79;82.54;79966.19;5337658;28;20008;-72
2023/01/26 07:47:13;;;;;;;29.75;17.67;;;;;;;-145.79;82.56;79972.53;5326245;28;20437;-72
2023/01/26 07:49:45;;;;;;;26.02;16.85;;;;;;;-145.79;83.15;79938.59;5323740;28;20482;-69
2023/01/26 07:52:17;;;;;;;32.20;19.15;;;;;;;-145.79;82.96;79944.97;5319425;28;20110;-68
2023/01/26 07:54:51;;;;;;;35.78;23.05;;;;;;;-145.79;82.88;79932.25;5308881;28;20111;-68
2023/01/26 07:57:22;;;;;;;36.28;21.75;;;;;;;-145.79;82.15;79932.25;5315902;28;20551;-68
2023/01/26 07:59:54;;;;;;;33.38;18.48;;;;;;;-145.79;82.37;79925.88;5312525;27;20075;-69
2023/01/26 08:02:25;;;;;;;28.80;18.10;;;;;;;-145.79;81.62;79951.34;5314236;28;20107;-69
2023/01/26 08:04:56;;;;;;;29.92;18.85;;;;;;;-145.79;82.08;79938.59;5314605;28;20362;-69
2023/01/26 08:07:27;;;;;;;29.30;18.35;;;;;;;-145.79;81.55;79936.50;5319351;28;20475;-69
2023/01/26 08:10:01;;;;;;;34.22;19.75;;;;;;;-145.79;82.03;79928.00;5320046;28;20130;-69
2023/01/26 08:12:36;;;;;;;32.92;18.98;;;;;;;-145.79;81.87;79921.63;5293895;28;20372;-69
2023/01/26 08:15:08;;;;;;;30.55;19.08;;;;;;;-145.79;81.72;79925.88;5315121;28;20013;-68
2023/01/26 08:17:39;;;;;;;29.08;19.58;;;;;;;-145.79;81.68;79921.63;5297547;28;20047;-68
2023/01/26 08:20:11;;;;;;;31.45;19.80;;;;;;;-145.79;81.45;79938.59;5311489;28;20059;-69
2023/01/26 08:22:42;;;;;;;40.78;22.65;;;;;;;-145.79;81.66;79930.13;5317134;28;20027;-70
2023/01/26 08:25:13;;;;;;;39.33;23.52;;;;;;;-145.79;81.82;79938.59;5304670;28;20024;-70
2023/01/26 08:27:44;;;;;;;32.42;20.65;;;;;;;-145.79;81.70;79951.34;5314141;28;20020;-69
2023/01/26 08:30:16;;;;;;;37.95;20.60;;;;;;;-145.79;82.08;79959.81;5297281;28;20036;-70
2023/01/26 08:32:53;;;;;;;33.55;20.15;;;;;;;-145.79;81.77;79968.31;5303872;28;20032;-70
2023/01/26 08:35:25;;;;;;;35.05;20.50;;;;;;;-145.79;82.33;79961.94;5311527;28;20036;-70
2023/01/26 08:37:56;;;;;;;34.65;19.65;;;;;;;-145.79;82.67;79953.47;5322054;28;20020;-69
2023/01/26 08:40:28;;;;;;;33.00;19.77;;;;;;;-145.79;83.01;79951.34;5306671;28;20032;-69
2023/01/26 08:43:02;;;;;;;30.70;19.05;;;;;;;-145.79;82.19;79968.31;5301388;27;20107;-68
2023/01/26 08:45:34;;;;;;;36.90;20.75;;;;;;;-145.79;82.36;79966.19;5308686;28;20535;-68
2023/01/26 08:48:08;;;;;;;35.50;20.40;;;;;;;-145.79;82.69;79964.06;5312322;28;20103;-68
2023/01/26 08:50:39;;;;;;;37.38;21.70;;;;;;;-145.79;82.80;79955.56;5311102;28;20093;-69
2023/01/26 08:53:10;;;;;;;33.42;20.48;;;;;;;-145.79;82.49;79959.81;5307749;28;20019;-68
2023/01/26 08:55:44;;;;;;;34.83;21.08;;;;;;;-145.79;82.55;79949.22;5312005;28;20023;-69
2023/01/26 08:58:16;;;;;;;37.28;22.40;;;;;;;-145.79;82.32;79959.81;5305929;28;20047;-68
2023/01/26 09:00:48;;;;;;;112.72;76.10;;;;;;;-145.79;82.47;79959.81;5300713;28;20050;-68
2023/01/26 09:03:19;;;;;;;32.97;20.85;;;;;;;-145.79;82.51;79961.94;5321476;28;20414;-68
2023/01/26 09:05:50;;;;;;;41.15;22.25;;;;;;;-145.79;82.84;79940.72;5314484;28;20055;-68
2023/01/26 09:08:22;;;;;;;31.25;19.33;;;;;;;-145.79;82.96;79947.09;5308674;28;20106;-68
2023/01/26 09:10:53;;;;;;;34.40;20.65;;;;;;;-145.79;82.65;79932.25;5314954;28;20035;-68
2023/01/26 09:13:25;;;;;;;38.20;22.92;;;;;;;-145.79;82.51;79944.97;5321026;28;20169;-68
2023/01/26 09:15:56;;;;;;;39.20;20.48;;;;;;;-145.79;82.87;79930.13;5314853;28;20482;-69
2023/01/26 09:18:30;;;;;;;36.40;21.90;;;;;;;-145.79;83.01;79938.59;5303229;28;20070;-68
2023/01/26 09:21:07;;;;;;;36.90;21.00;;;;;;;-145.79;82.67;79923.75;5296389;28;20024;-68
2023/01/26 09:23:38;;;;;;;40.67;21.63;;;;;;;-145.79;83.30;79915.28;5317877;28;20020;-68
2023/01/26 09:26:10;;;;;;;36.90;21.02;;;;;;;-145.79;83.06;79908.91;5303679;28;20028;-69
2023/01/26 09:28:41;;;;;;;38.20;21.17;;;;;;;-145.79;82.88;79921.63;5299466;28;20420;-68
2023/01/26 09:31:13;;;;;;;36.65;20.33;;;;;;;-145.79;82.99;79925.88;5322200;28;20118;-68
2023/01/26 09:33:44;;;;;;;36.15;22.60;;;;;;;-145.79;83.10;79921.63;5317245;28;20024;-69
2023/01/26 09:36:19;;;;;;;39.05;22.77;;;;;;;-145.79;83.61;79917.41;5306515;28;20119;-67
2023/01/26 09:38:53;;;;;;;43.45;22.52;;;;;;;-145.79;83.73;79932.25;5319105;28;20031;-68
2023/01/26 09:41:45;;;;;;;41.30;22.23;;;;;;;-145.79;83.92;79934.38;5310188;28;20381;-68
2023/01/26 09:44:23;;;;;;;39.72;21.52;;;;;;;-145.79;84.21;79930.13;5307147;28;20061;-68
2023/01/26 09:47:12;;;;;;;40.72;21.63;;;;;;;-145.79;84.03;79940.72;5310476;28;20078;-67
2023/01/26 09:49:57;;;;;;;44.65;22.88;;;;;;;-145.79;84.16;79925.88;5317897;28;20028;-68
2023/01/26 09:52:38;;;;;;;42.55;23.55;;;;;;;-145.79;84.18;79944.97;5292962;28;20025;-68
2023/01/26 09:55:18;;;;;;;40.33;24.15;;;;;;;-145.79;83.93;79936.50;5301651;28;20513;-68
2023/01/26 09:57:55;;;;;;;47.08;23.20;;;;;;;-145.79;83.82;79955.56;5313839;28;20035;-68
2023/01/26 10:00:32;;;;;;;42.40;22.23;;;;;;;-145.79;84.53;79957.69;5307883;28;20051;-68
2023/01/26 10:03:03;;;;;;;35.50;20.80;;;;;;;-145.79;84.83;79934.38;5319765;28;20051;-68
2023/01/26 10:05:44;;;;;;;38.60;22.42;;;;;;;-145.79;84.54;79932.25;5311382;28;20062;-68
2023/01/26 10:08:18;;;;;;;42.15;22.15;;;;;;;-145.79;84.80;79921.63;5303787;28;20110;-68
2023/01/26 10:10:59;;;;;;;45.30;25.17;;;;;;;-145.79;84.60;79917.41;5313318;28;20390;-68
2023/01/26 10:13:30;;;;;;;44.65;24.65;;;;;;;-145.79;84.41;79934.38;5319860;28;20086;-68
2023/01/26 10:16:07;;;;;;;50.33;28.60;;;;;;;-145.79;84.65;79908.91;5313962;28;20024;-68
2023/01/26 10:18:59;;;;;;;84.38;50.28;;;;;;;-145.79;84.90;79900.44;5309666;28;20040;-68
2023/01/26 10:21:38;;;;;;;48.67;25.90;;;;;;;-145.79;85.08;79894.06;5300924;28;20020;-68
2023/01/26 10:24:11;;;;;;;43.70;22.35;;;;;;;-145.79;84.47;79889.81;5305746;28;20024;-68
2023/01/26 10:26:42;;;;;;;54.20;24.77;;;;;;;-145.79;84.82;79883.47;5291615;28;20017;-68
2023/01/26 10:29:15;;;;;;;48.17;24.05;;;;;;;-145.79;84.53;79891.94;5319659;28;20100;-69
2023/01/26 10:31:49;;;;;;;41.03;22.52;;;;;;;-145.79;84.96;79879.22;5339121;28;20494;-69
2023/01/26 10:34:25;;;;;;;50.55;25.65;;;;;;;-145.79;84.97;79881.34;5329376;28;20024;-69
2023/01/26 10:37:17;;;;;;;45.70;23.45;;;;;;;-145.79;85.16;79883.47;5338594;28;20463;-69
2023/01/26 10:40:06;;;;;;;49.65;24.55;;;;;;;-145.79;85.51;79883.47;5316208;28;20032;-69
2023/01/26 10:42:39;;;;;;;50.80;25.80;;;;;;;-145.79;85.42;79904.66;5330583;28;20083;-70
2023/01/26 10:45:26;;;;;;;44.55;23.02;;;;;;;-145.79;86.44;79883.47;5342707;28;20038;-69
2023/01/26 10:48:13;;;;;;;49.50;24.02;;;;;;;-145.79;86.75;79879.22;5334950;28;20033;-68
2023/01/26 10:50:46;;;;;;;52.22;26.50;;;;;;;-145.79;86.61;79870.72;5337013;28;20047;-70
2023/01/26 10:53:28;;;;;;;53.50;27.00;;;;;;;-145.79;86.49;79868.63;5319500;28;20014;-69
2023/01/26 10:56:04;;;;;;;51.90;25.92;;;;;;;-145.79;86.29;79877.09;5320634;28;20108;-67
2023/01/26 10:58:53;;;;;;;52.58;28.95;;;;;;;-145.79;86.44;79860.13;5332362;28;20108;-69
2023/01/26 11:01:27;;;;;;;50.63;24.98;;;;;;;-145.79;86.46;79853.78;5304380;28;20044;-69
2023/01/26 11:04:11;;;;;;;51.78;26.70;;;;;;;-145.79;86.91;79853.78;5314538;28;20008;-68
2023/01/26 11:06:42;;;;;;;51.58;27.60;;;;;;;-145.79;86.76;79832.56;5320583;28;20033;-68
2023/01/26 11:09:13;;;;;;;54.15;29.40;;;;;;;-145.79;86.84;79834.69;5331424;28;20038;-69
2023/01/26 11:12:02;;;;;;;53.60;26.17;;;;;;;-145.79;87.27;79817.72;5336312;28;20031;-68
2023/01/26 11:14:36;;;;;;;52.22;26.35;;;;;;;-145.79;87.30;79815.59;5332065;28;20024;-69
2023/01/26 11:17:27;;;;;;;51.63;26.50;;;;;;;-145.79;87.49;79798.63;5325260;28;20020;-68
2023/01/26 11:20:08;;;;;;;51.97;26.60;;;;;;;-145.79;87.58;79785.91;5305208;28;20077;-68
2023/01/26 11:22:54;;;;;;;260.67;170.57;;;;;;;-145.79;87.86;79783.78;5287486;28;20476;-69
2023/01/26 11:26:05;;;;;;;60.13;30.65;;;;;;;-145.79;88.10;79764.69;5285822;28;20132;-68
2023/01/26 11:28:55;;;;;;;57.47;27.88;;;;;;;-145.79;88.39;79764.69;5301818;28;20024;-68
2023/01/26 11:31:41;;;;;;;54.15;27.35;;;;;;;-145.79;88.37;79747.72;5293073;28;20027;-68
2023/01/26 11:34:37;;;;;;;50.83;25.17;;;;;;;-145.79;88.52;79737.13;5311940;28;20111;-69
2023/01/26 11:37:32;;;;;;;47.47;24.15;;;;;;;-145.79;88.48;79741.38;5302562;28;20027;-69
2023/01/26 11:40:36;;;;;;;59.88;24.90;;;;;;;-145.79;88.97;79728.63;5310311;28;20056;-68
2023/01/26 11:43:21;;;;;;;52.55;25.23;;;;;;;-145.79;89.02;79715.91;5282663;28;20387;-69
2023/01/26 11:45:58;;;;;;;44.00;20.40;;;;;;;-145.79;89.37;79703.19;5300639;28;20489;-68
2023/01/26 11:48:30;;;;;;;50.50;24.25;;;;;;;-145.79;89.51;79696.81;5298980;28;20421;-68
2023/01/26 11:51:13;;;;;;;56.30;25.73;;;;;;;-145.79;89.71;79684.09;5315544;28;20024;-69
2023/01/26 11:54:22;;;;;;;49.60;25.50;;;;;;;-145.79;89.86;79671.38;5308662;28;20035;-69
2023/01/26 11:56:56;;;;;;;50.38;23.40;;;;;;;-145.79;89.86;79654.41;5311760;28;20429;-68
2023/01/26 11:59:37;;;;;;;52.55;23.92;;;;;;;-145.79;89.62;79637.44;5315528;28;20043;-68
2023/01/26 12:02:26;;;;;;;47.55;23.05;;;;;;;-145.79;89.71;79633.19;5317072;28;20042;-70
2023/01/26 12:05:02;;;;;;;44.08;22.25;;;;;;;-145.79;89.88;79620.47;5305992;28;20027;-71
2023/01/26 12:07:55;;;;;;;60.08;23.48;;;;;;;-145.79;90.01;79601.38;5313052;27;20511;-70
2023/01/26 12:10:35;;;;;;;68.22;35.20;;;;;;;-145.79;90.37;79582.28;5298470;28;20025;-68
2023/01/26 12:13:29;;;;;;;49.08;25.15;;;;;;;-145.79;90.74;79561.09;5322161;28;20149;-68
2023/01/26 12:16:13;;;;;;;40.08;19.80;;;;;;;-145.79;91.10;79539.88;5296048;28;20032;-69
2023/01/26 12:19:09;;;;;;;44.35;21.23;;;;;;;-145.79;91.26;79522.91;5302598;28;20036;-70
2023/01/26 12:21:53;;;;;;;42.35;20.23;;;;;;;-145.79;91.93;79501.72;5253393;28;20042;-69
2023/01/26 12:24:50;;;;;;;38.15;17.45;;;;;;;-145.79;92.08;79478.38;5313919;28;20025;-69
2023/01/26 12:27:34;;;;;;;40.38;15.57;;;;;;;-145.79;92.18;79476.25;5308979;28;20020;-69
2023/01/26 12:30:24;;;;;;;33.33;13.40;;;;;;;-145.79;92.18;79463.53;5308676;28;20058;-69
2023/01/26 12:32:55;;;;;;;30.98;13.45;;;;;;;-145.79;92.16;79448.69;5309059;28;20387;-69
2023/01/26 12:35:42;;;;;;;46.28;18.40;;;;;;;-145.79;91.92;79438.09;5311813;28;20019;-69
2023/01/26 12:38:22;;;;;;;32.10;11.60;;;;;;;-145.79;91.82;79431.72;5314968;28;20112;-69
2023/01/26 12:41:12;;;;;;;32.42;12.63;;;;;;;-145.79;91.90;79416.88;5322898;28;20053;-69
2023/01/26 12:44:02;;;;;;;29.40;11.13;;;;;;;-145.79;91.88;79408.41;5296832;28;20168;-68
2023/01/26 12:46:40;;;;;;;33.25;11.18;;;;;;;-145.79;91.59;79391.44;5289003;28;20062;-69
2023/01/26 12:49:21;;;;;;;25.88;9.93;;;;;;;-145.79;91.45;79385.06;5307149;28;20163;-69
2023/01/26 12:51:58;;;;;;;33.47;10.98;;;;;;;-145.79;91.14;79370.22;5319289;28;20046;-68
2023/01/26 12:54:38;;;;;;;24.63;9.25;;;;;;;-145.79;91.12;79363.88;5306972;28;20425;-68
2023/01/26 12:57:17;;;;;;;28.40;11.77;;;;;;;-145.79;91.24;79361.75;5312019;28;20522;-68
2023/01/26 12:59:49;;;;;;;28.90;10.38;;;;;;;-145.79;91.14;79357.50;5317616;28;20047;-68
2023/01/26 13:02:30;;;;;;;28.58;10.93;;;;;;;-145.79;91.02;79355.38;5294505;28;20028;-68
2023/01/26 13:05:09;;;;;;;29.38;10.43;;;;;;;-145.79;90.74;79342.66;5294257;28;20031;-69
2023/01/26 13:07:40;;;;;;;28.27;9.10;;;;;;;-145.79;90.65;79340.53;5319138;28;20035;-69
2023/01/26 13:10:19;;;;;;;26.85;9.02;;;;;;;-145.79;90.58;79327.81;5314706;28;20493;-69
2023/01/26 13:12:52;;;;;;;26.60;10.63;;;;;;;-145.79;90.56;79332.06;5309268;28;20028;-69
2023/01/26 13:15:27;;;;;;;24.50;9.85;;;;;;;-145.79;90.28;79327.81;5319041;28;20375;-67
2023/01/26 13:18:00;;;;;;;29.15;9.50;;;;;;;-145.79;90.22;79323.56;5301676;28;20396;-67
2023/01/26 13:20:45;;;;;;;29.75;9.43;;;;;;;-145.79;90.18;79319.31;5313691;28;20375;-67
2023/01/26 13:23:39;;;;;;;27.27;9.05;;;;;;;-145.79;89.84;79321.44;5321767;28;20123;-68
2023/01/26 13:26:14;;;;;;;23.42;7.72;;;;;;;-145.79;89.62;79308.72;5316753;28;20106;-68
2023/01/26 13:28:47;;;;;;;27.48;8.55;;;;;;;-145.79;89.31;79302.38;5307566;28;20033;-70
2023/01/26 13:31:31;;;;;;;31.70;9.82;;;;;;;-145.79;89.42;79293.88;5283230;28;20055;-68
2023/01/26 13:34:07;;;;;;;20.85;7.60;;;;;;;-145.79;88.89;79287.50;5297132;28;20020;-69
2023/01/26 13:36:42;;;;;;;17.70;6.88;;;;;;;-145.79;88.68;79272.66;5319074;28;20024;-69
2023/01/26 13:39:29;;;;;;;24.25;11.50;;;;;;;-145.79;88.02;79259.94;5308133;28;20031;-69
2023/01/26 13:42:03;;;;;;;27.30;9.18;;;;;;;-145.79;87.95;79251.47;5304827;28;20024;-69
2023/01/26 13:44:40;;;;;;;19.75;7.57;;;;;;;-145.79;87.17;79253.59;5315021;28;20032;-69
2023/01/26 13:47:18;;;;;;;23.50;6.20;;;;;;;-145.79;85.03;79259.94;5310041;28;20035;-69
2023/01/26 13:49:49;;;;;;;22.25;6.07;;;;;;;-145.79;84.83;79232.38;5298414;28;20022;-69
2023/01/26 13:52:24;;;;;;;20.98;4.65;;;;;;;-145.79;83.99;79251.47;5302904;28;20020;-70
2023/01/26 13:55:00;;;;;;;21.60;5.78;;;;;;;-145.79;83.57;79253.59;5306800;28;20104;-68
2023/01/26 13:57:32;;;;;;;23.75;5.07;;;;;;;-145.79;83.71;79238.75;5295947;28;20019;-70
2023/01/26 14:00:03;;;;;;;17.13;5.22;;;;;;;-145.79;83.15;79242.97;5313832;28;20050;-70
2023/01/26 14:02:37;;;;;;;17.17;5.00;;;;;;;-145.79;83.01;79242.97;5314353;28;20064;-69
2023/01/26 14:05:22;;;;;;;18.27;4.95;;;;;;;-145.79;82.63;79245.09;5302781;28;20111;-67
2023/01/26 14:07:54;;;;;;;17.25;5.03;;;;;;;-145.79;83.22;79240.88;5298928;28;20063;-69
2023/01/26 14:10:27;;;;;;;16.88;4.78;;;;;;;-145.79;83.43;79238.75;5288746;28;20033;-70
2023/01/26 14:12:59;;;;;;;17.88;5.88;;;;;;;-145.79;82.81;79240.88;5302924;28;20070;-68
2023/01/26 14:15:32;;;;;;;17.15;5.13;;;;;;;-145.79;82.43;79240.88;5318661;28;20055;-69
2023/01/26 14:18:04;;;;;;;17.02;4.93;;;;;;;-145.79;83.59;79206.94;5314402;28;20029;-69
2023/01/26 14:20:38;;;;;;;15.88;4.93;;;;;;;-145.79;82.68;79223.91;5306612;28;20364;-70
2023/01/26 14:23:17;;;;;;;19.00;5.15;;;;;;;-145.79;82.20;79221.78;5291335;28;20115;-70
2023/01/26 14:26:18;;;;;;;17.63;6.70;;;;;;;-145.79;81.49;79221.78;5283860;28;20028;-69
2023/01/26 14:28:53;;;;;;;19.75;6.40;;;;;;;-145.79;80.72;79230.25;5319695;28;20475;-70
2023/01/26 14:31:27;;;;;;;11.55;4.80;;;;;;;-145.79;80.02;79234.50;5303356;28;20051;-70
2023/01/26 14:34:07;;;;;;;16.90;4.57;;;;;;;-145.79;79.73;79238.75;5289135;28;20115;-70
2023/01/26 14:36:38;;;;;;;15.00;4.47;;;;;;;-145.79;79.02;79245.09;5311760;28;20024;-71
2023/01/26 14:39:16;;;;;;;12.38;4.57;;;;;;;-145.79;78.96;79238.75;5308868;28;20102;-70
2023/01/26 14:41:48;;;;;;;19.73;7.43;;;;;;;-145.79;78.99;79238.75;5316639;28;20027;-70
2023/01/26 14:44:19;;;;;;;11.30;4.53;;;;;;;-145.79;79.06;79242.97;5320789;28;20467;-69
2023/01/26 14:47:08;;;;;;;17.33;4.03;;;;;;;-145.79;78.74;79230.25;5305541;28;20085;-74
2023/01/26 14:49:55;;;;;;;9.18;3.30;;;;;;;-145.79;79.23;79209.06;5318906;28;20028;-73
2023/01/26 14:52:37;;;;;;;20.02;8.00;;;;;;;-145.79;78.36;79202.69;5316990;28;20367;-73
2023/01/26 14:55:23;;;;;;;14.68;5.68;;;;;;;-145.79;78.33;79194.22;5300265;28;20032;-74
2023/01/26 14:57:55;;;;;;;20.30;4.65;;;;;;;-145.79;76.59;79198.44;5307038;28;20025;-74
2023/01/26 15:00:28;;;;;;;14.50;4.40;;;;;;;-145.79;77.30;79181.50;5294984;28;20041;-73
2023/01/26 15:03:10;;;;;;;11.80;3.25;;;;;;;-145.79;75.92;79194.22;5316696;28;20032;-74
2023/01/26 15:05:42;;;;;;;12.40;3.58;;;;;;;-145.79;75.30;79194.22;5309429;28;20024;-73
2023/01/26 15:08:19;;;;;;;13.38;3.90;;;;;;;-145.79;74.76;79192.09;5317993;28;20031;-74
2023/01/26 15:13:54;;;;;;;18.17;4.10;;;;;;;-145.79;74.81;79183.59;5314485;28;20115;-73
2023/01/26 15:16:25;;;;;;;17.98;4.50;;;;;;;-145.79;73.86;79183.59;5312520;28;20023;-74
2023/01/26 15:19:06;;;;;;;11.50;4.25;;;;;;;-145.79;74.50;79160.28;5289524;28;20021;-75
2023/01/26 15:21:39;;;;;;;14.68;4.97;;;;;;;-145.79;74.41;79156.03;5293736;28;20108;-75
2023/01/26 15:24:12;;;;;;;11.63;3.70;;;;;;;-145.79;73.74;79187.84;5309696;28;20377;-73
2023/01/26 15:26:44;;;;;;;9.82;3.38;;;;;;;-145.79;73.41;79202.69;5299664;28;20032;-69
2023/01/26 15:29:22;;;;;;;15.05;5.72;;;;;;;-145.79;73.68;79204.81;5311775;28;20020;-74
2023/01/26 15:31:55;;;;;;;11.85;3.55;;;;;;;-145.79;73.77;79211.19;5311692;28;20039;-73
2023/01/26 15:34:33;;;;;;;9.18;3.38;;;;;;;-145.79;73.75;79221.78;5303201;28;20504;-76
2023/01/26 15:37:30;;;;;;;10.07;3.17;;;;;;;-145.79;74.61;79202.69;5322791;28;20466;-67
2023/01/26 15:40:02;;;;;;;10.73;3.08;;;;;;;-145.79;73.84;79204.81;5309131;28;20056;-67
2023/01/26 15:42:34;;;;;;;14.00;4.80;;;;;;;-145.79;73.85;79226.03;5298528;28;20107;-67
2023/01/26 15:45:25;;;;;;;16.27;5.20;;;;;;;-145.79;74.03;79228.13;5321416;28;20499;-67
2023/01/26 15:48:00;;;;;;;14.02;4.13;;;;;;;-145.79;74.06;79234.50;5303182;28;20475;-66
2023/01/26 15:50:31;;;;;;;11.07;4.47;;;;;;;-145.79;74.71;79219.66;5320998;28;20022;-66
2023/01/26 15:53:02;;;;;;;12.48;5.15;;;;;;;-145.79;74.50;79232.38;5310354;28;20445;-66
2023/01/26 15:55:35;;;;;;;85.43;65.50;;;;;;;-145.79;75.17;79230.25;5316888;27;20019;-67
2023/01/26 15:58:06;;;;;;;19.08;7.35;;;;;;;-145.79;74.70;79238.75;5316313;28;20032;-68
2023/01/26 16:00:37;;;;;;;9.00;4.25;;;;;;;-145.79;74.72;79247.22;5307706;28;20428;-68
2023/01/26 16:03:20;;;;;;;11.70;4.60;;;;;;;-145.79;75.06;79234.50;5312157;28;20026;-71
2023/01/26 16:05:52;;;;;;;11.20;3.63;;;;;;;-145.79;75.14;79232.38;5310372;28;20024;-71
2023/01/26 16:08:23;;;;;;;10.95;2.83;;;;;;;-145.79;74.99;79242.97;5304018;28;20054;-71
2023/01/26 16:10:56;;;;;;;10.63;3.72;;;;;;;-145.79;75.19;79253.59;5312751;28;20027;-72
2023/01/26 16:13:29;;;;;;;10.80;3.92;;;;;;;-145.79;75.05;79245.09;5320944;28;20115;-68
2023/01/26 16:16:04;;;;;;;16.10;6.93;;;;;;;-145.79;75.44;79251.47;5315710;28;20024;-69
2023/01/26 16:18:35;;;;;;;9.15;4.03;;;;;;;-145.79;75.38;79255.72;5311400;28;20467;-69
2023/01/26 16:21:34;;;;;;;11.25;3.78;;;;;;;-145.79;75.50;79251.47;5311655;28;20042;-67
2023/01/26 16:24:05;;;;;;;15.02;6.00;;;;;;;-145.79;75.33;79255.72;5310549;28;20031;-68
2023/01/26 16:26:37;;;;;;;13.95;5.75;;;;;;;-145.79;75.49;79251.47;5322522;28;20076;-69
2023/01/26 16:29:08;;;;;;;11.65;3.95;;;;;;;-145.79;75.92;79259.94;5302605;28;20378;-68
2023/01/26 16:31:40;;;;;;;88.95;65.82;;;;;;;-145.79;76.10;79253.59;5299938;28;20424;-68
